Time;durP1;ratioP1;P1;durP2;ratioP2;P2;SDS_P1;SDS_P2;PMS_P1;PMS_P2;Temp;Humidity;BMP_temperature;BMP_pressure;BME280_temperature;BME280_humidity;BME280_pressure;Samples;Min_cycle;Max_cycle;Signal;HPM_P1;HPM_P2
2022/08/16 00:00:44;;;;;;;43.47;4.50;;;41.80;43.30;;;;;;5068741;28;20032;-65
2022/08/16 00:03:11;;;;;;;16.42;2.35;;;41.90;43.30;;;;;;5070538;28;20016;-65
2022/08/16 00:05:38;;;;;;;17.45;3.10;;;41.90;43.40;;;;;;5070911;28;20429;-65
2022/08/16 00:08:05;;;;;;;38.35;3.65;;;42.00;43.80;;;;;;5069165;28;20142;-65
2022/08/16 00:10:32;;;;;;;19.95;3.25;;;42.00;43.40;;;;;;5068595;28;20044;-67
2022/08/16 00:13:00;;;;;;;21.80;2.95;;;41.90;43.20;;;;;;5071820;28;20420;-65
2022/08/16 00:15:44;;;;;;;17.15;3.25;;;41.90;43.20;;;;;;5066600;28;20114;-65
2022/08/16 00:18:11;;;;;;;17.58;2.80;;;41.80;43.30;;;;;;5068932;28;20397;-66
2022/08/16 00:20:40;;;;;;;23.88;2.63;;;41.80;44.00;;;;;;5068496;28;20500;-65
2022/08/16 00:23:07;;;;;;;16.20;2.70;;;41.80;43.80;;;;;;5069908;28;20382;-65
2022/08/16 00:25:34;;;;;;;16.38;2.80;;;41.80;43.80;;;;;;5069242;28;20021;-65
2022/08/16 00:28:00;;;;;;;20.73;3.15;;;41.80;43.50;;;;;;5068783;28;20021;-65
2022/08/16 00:30:27;;;;;;;26.63;2.95;;;41.70;44.10;;;;;;5068941;28;20093;-64
2022/08/16 00:32:57;;;;;;;17.88;2.67;;;41.70;44.30;;;;;;5069291;28;20024;-65
2022/08/16 00:35:27;;;;;;;17.77;2.58;;;41.60;43.30;;;;;;5066558;28;20035;-65
2022/08/16 00:37:56;;;;;;;22.20;2.58;;;41.60;43.40;;;;;;5068884;28;20024;-65
2022/08/16 00:40:37;;;;;;;24.38;2.60;;;41.50;43.70;;;;;;5068590;28;20028;-65
2022/08/16 00:43:10;;;;;;;15.10;2.40;;;41.30;43.90;;;;;;5069063;28;20482;-64
2022/08/16 00:45:49;;;;;;;17.60;3.08;;;41.30;43.70;;;;;;5066679;28;20482;-65
2022/08/16 00:48:17;;;;;;;18.88;2.85;;;41.30;43.60;;;;;;5068649;28;20055;-65
2022/08/16 00:50:44;;;;;;;15.57;2.47;;;41.30;43.70;;;;;;5069838;28;20031;-65
2022/08/16 00:53:13;;;;;;;20.77;2.83;;;41.20;43.90;;;;;;5074109;28;20390;-65
2022/08/16 00:55:43;;;;;;;26.35;2.72;;;41.20;43.50;;;;;;5068124;28;20091;-66
2022/08/16 00:58:10;;;;;;;17.70;3.00;;;41.10;43.70;;;;;;5052039;28;20410;-65
2022/08/16 01:00:37;;;;;;;13.02;3.00;;;41.10;44.30;;;;;;5067709;28;20035;-65
2022/08/16 01:03:07;;;;;;;16.73;2.72;;;41.00;44.10;;;;;;5068177;28;20417;-65
2022/08/16 01:05:35;;;;;;;17.17;2.58;;;41.00;44.20;;;;;;5067516;28;20024;-65
2022/08/16 01:08:05;;;;;;;23.60;2.97;;;41.00;45.10;;;;;;5068990;28;20380;-65
2022/08/16 01:10:32;;;;;;;16.58;2.15;;;40.90;44.50;;;;;;5067859;28;20045;-66
2022/08/16 01:13:04;;;;;;;21.15;3.42;;;40.90;44.20;;;;;;5072919;28;20047;-66
2022/08/16 01:15:31;;;;;;;14.85;3.05;;;40.80;43.90;;;;;;5069661;28;20034;-66
2022/08/16 01:17:58;;;;;;;20.98;2.88;;;40.80;44.50;;;;;;5075836;28;20410;-68
2022/08/16 01:20:28;;;;;;;17.65;2.70;;;40.70;44.70;;;;;;5067528;28;20041;-66
2022/08/16 01:23:11;;;;;;;25.88;3.05;;;40.60;44.60;;;;;;5068467;28;20130;-66
2022/08/16 01:25:44;;;;;;;31.98;3.38;;;40.60;44.50;;;;;;5069754;28;20420;-65
2022/08/16 01:28:18;;;;;;;22.50;3.05;;;40.50;44.40;;;;;;5072678;28;20034;-65
2022/08/16 01:30:48;;;;;;;24.23;2.85;;;40.40;44.70;;;;;;5071317;28;20073;-65
2022/08/16 01:33:14;;;;;;;23.92;3.38;;;40.40;45.80;;;;;;5069315;28;20028;-64
2022/08/16 01:35:46;;;;;;;14.18;2.97;;;40.30;45.90;;;;;;5067104;28;20060;-65
2022/08/16 01:38:21;;;;;;;20.80;3.20;;;40.20;45.10;;;;;;5066514;28;20038;-68
2022/08/16 01:40:50;;;;;;;30.30;3.17;;;40.20;46.20;;;;;;5067487;28;20050;-65
2022/08/16 01:43:17;;;;;;;24.52;3.28;;;40.10;45.20;;;;;;5067813;28;20144;-65
2022/08/16 01:45:43;;;;;;;15.55;2.40;;;40.10;45.00;;;;;;5065282;28;20031;-68
2022/08/16 01:48:10;;;;;;;16.70;2.75;;;40.00;45.30;;;;;;5067627;28;20092;-66
2022/08/16 01:50:39;;;;;;;28.30;3.83;;;40.00;45.90;;;;;;5068197;28;20126;-66
2022/08/16 01:53:06;;;;;;;24.35;3.78;;;39.90;45.80;;;;;;5068166;28;20042;-64
2022/08/16 01:55:33;;;;;;;18.73;3.20;;;39.90;46.20;;;;;;5067331;28;20536;-64
2022/08/16 01:58:00;;;;;;;18.70;2.45;;;39.90;46.30;;;;;;5067717;28;20039;-65
2022/08/16 02:00:27;;;;;;;17.77;2.20;;;39.80;46.40;;;;;;5067099;28;20061;-65
2022/08/16 02:02:53;;;;;;;18.65;2.97;;;39.80;46.80;;;;;;5068919;28;20063;-65
2022/08/16 02:05:20;;;;;;;17.88;2.40;;;39.70;46.70;;;;;;5067070;28;20065;-67
2022/08/16 02:07:46;;;;;;;21.38;2.63;;;39.70;47.00;;;;;;5069626;28;20039;-66
2022/08/16 02:10:13;;;;;;;16.42;2.80;;;39.60;47.20;;;;;;5068313;28;20034;-64
2022/08/16 02:12:40;;;;;;;17.77;2.50;;;39.60;47.10;;;;;;5070098;28;20050;-67
2022/08/16 02:15:07;;;;;;;14.73;2.28;;;39.50;47.30;;;;;;5067069;28;20505;-65
2022/08/16 02:17:34;;;;;;;17.42;2.38;;;39.40;47.30;;;;;;5066895;28;20063;-65
2022/08/16 02:20:01;;;;;;;25.60;2.83;;;39.40;47.50;;;;;;5067961;28;20044;-65
2022/08/16 02:22:28;;;;;;;18.92;2.63;;;39.20;47.40;;;;;;5067145;28;20140;-63
2022/08/16 02:24:54;;;;;;;26.77;3.28;;;39.20;47.60;;;;;;5067270;28;20045;-64
2022/08/16 02:27:21;;;;;;;18.75;2.92;;;39.10;47.20;;;;;;5067781;28;20046;-66
2022/08/16 02:29:47;;;;;;;29.75;2.88;;;39.00;47.00;;;;;;5069832;28;20431;-64
2022/08/16 02:32:16;;;;;;;20.17;3.40;;;39.00;47.20;;;;;;5067228;28;20046;-64
2022/08/16 02:34:43;;;;;;;17.92;3.55;;;38.90;47.20;;;;;;5065968;28;20075;-66
2022/08/16 02:37:10;;;;;;;28.65;3.60;;;38.90;47.30;;;;;;5066603;28;20046;-65
2022/08/16 02:39:36;;;;;;;21.63;4.07;;;38.80;47.20;;;;;;5067971;28;20415;-66
2022/08/16 02:42:03;;;;;;;30.95;3.38;;;38.70;47.30;;;;;;5066837;28;20105;-66
2022/08/16 02:44:30;;;;;;;24.33;2.97;;;38.60;47.60;;;;;;5067001;28;20048;-66
2022/08/16 02:46:56;;;;;;;27.55;3.20;;;38.60;48.60;;;;;;5066545;28;20404;-65
2022/08/16 02:49:23;;;;;;;16.10;1.95;;;38.50;48.20;;;;;;5084337;28;20054;-67
2022/08/16 02:51:49;;;;;;;19.80;2.85;;;38.40;48.30;;;;;;5067350;28;20053;-65
2022/08/16 02:54:16;;;;;;;20.17;3.20;;;38.30;48.70;;;;;;5067316;28;20134;-65
2022/08/16 02:56:43;;;;;;;26.20;2.97;;;38.20;48.90;;;;;;5066442;28;20153;-65
2022/08/16 02:59:10;;;;;;;24.80;3.67;;;38.20;49.20;;;;;;5070664;28;20059;-65
2022/08/16 03:01:37;;;;;;;18.30;2.65;;;38.10;49.50;;;;;;5065113;28;20069;-69
2022/08/16 03:04:05;;;;;;;23.17;2.92;;;38.00;49.70;;;;;;5067426;28;20066;-66
2022/08/16 03:06:32;;;;;;;12.82;2.70;;;37.90;49.60;;;;;;5067382;28;20069;-64
2022/08/16 03:08:58;;;;;;;22.85;3.33;;;37.90;49.60;;;;;;5068728;28;20520;-65
2022/08/16 03:11:25;;;;;;;23.80;2.65;;;37.80;49.60;;;;;;5070039;28;20117;-66
2022/08/16 03:13:54;;;;;;;35.20;5.70;;;37.80;49.90;;;;;;5069818;28;20112;-65
2022/08/16 03:16:22;;;;;;;24.90;3.05;;;37.70;50.20;;;;;;5074362;28;20446;-66
2022/08/16 03:18:49;;;;;;;24.55;2.58;;;37.70;50.60;;;;;;5071615;28;20071;-65
2022/08/16 03:21:15;;;;;;;25.30;3.30;;;37.60;50.70;;;;;;5070399;28;20073;-65
2022/08/16 03:23:42;;;;;;;35.45;3.83;;;37.60;51.00;;;;;;5070559;28;20060;-66
2022/08/16 03:26:08;;;;;;;24.13;3.15;;;37.50;51.10;;;;;;5071465;28;20158;-67
2022/08/16 03:28:35;;;;;;;18.17;2.78;;;37.50;51.10;;;;;;5070244;28;20534;-66
2022/08/16 03:31:01;;;;;;;21.98;2.95;;;37.50;51.10;;;;;;5071367;28;20520;-64
2022/08/16 03:33:28;;;;;;;28.45;3.17;;;37.40;51.10;;;;;;5071197;28;20067;-66
2022/08/16 03:35:58;;;;;;;15.45;2.60;;;37.40;51.40;;;;;;5070979;28;20042;-66
2022/08/16 03:38:27;;;;;;;18.40;3.13;;;37.40;51.00;;;;;;5070854;28;20051;-65
2022/08/16 03:40:55;;;;;;;24.67;3.50;;;37.40;51.40;;;;;;5071142;28;20062;-66
2022/08/16 03:43:26;;;;;;;30.00;3.05;;;37.30;52.20;;;;;;5069886;28;20067;-66
2022/08/16 03:45:54;;;;;;;30.02;3.40;;;37.20;52.70;;;;;;5070966;28;20057;-65
2022/08/16 03:48:26;;;;;;;31.63;4.15;;;37.20;53.10;;;;;;5070055;28;20056;-69
2022/08/16 03:50:53;;;;;;;30.13;3.22;;;37.20;53.40;;;;;;5069647;28;20500;-66
2022/08/16 03:53:20;;;;;;;34.38;3.33;;;37.10;53.60;;;;;;5070936;28;20062;-67
2022/08/16 03:55:46;;;;;;;25.13;3.33;;;37.10;54.00;;;;;;5084090;28;20190;-65
2022/08/16 03:58:13;;;;;;;23.95;3.72;;;37.10;53.80;;;;;;5074424;28;20054;-69
2022/08/16 04:00:39;;;;;;;28.23;3.13;;;37.00;53.90;;;;;;5069438;28;20072;-67
2022/08/16 04:03:06;;;;;;;16.38;3.88;;;37.00;54.10;;;;;;5069067;28;20163;-66
2022/08/16 04:05:38;;;;;;;32.72;4.32;;;36.90;54.40;;;;;;5069869;28;20454;-66
2022/08/16 04:08:06;;;;;;;28.00;4.60;;;36.90;54.50;;;;;;5071109;28;20112;-67
2022/08/16 04:10:33;;;;;;;15.63;2.88;;;36.80;54.80;;;;;;5069593;28;20060;-67
2022/08/16 04:13:00;;;;;;;29.17;3.47;;;36.80;55.00;;;;;;5068162;28;20055;-69
2022/08/16 04:15:28;;;;;;;16.50;4.10;;;36.70;55.30;;;;;;5070910;28;20080;-67
2022/08/16 04:17:56;;;;;;;21.17;3.70;;;36.60;55.50;;;;;;5071084;28;20069;-68
2022/08/16 04:20:24;;;;;;;22.58;3.22;;;36.60;55.70;;;;;;5067319;28;20054;-68
2022/08/16 04:22:51;;;;;;;27.40;3.70;;;36.60;55.90;;;;;;5071221;28;20094;-67
2022/08/16 04:25:19;;;;;;;28.27;3.78;;;36.50;55.90;;;;;;5069281;28;20055;-67
2022/08/16 04:27:45;;;;;;;47.28;3.80;;;36.50;56.50;;;;;;5068975;28;20193;-68
2022/08/16 04:30:16;;;;;;;22.05;3.65;;;36.50;56.20;;;;;;5068059;28;20054;-66
2022/08/16 04:32:44;;;;;;;31.40;3.63;;;36.40;56.00;;;;;;5069003;28;20058;-68
2022/08/16 04:35:15;;;;;;;15.85;2.88;;;36.40;56.00;;;;;;5068438;28;20547;-66
2022/08/16 04:37:43;;;;;;;23.90;2.70;;;36.30;56.20;;;;;;5068999;28;20073;-66
2022/08/16 04:40:11;;;;;;;28.17;3.60;;;36.20;56.30;;;;;;5070204;28;20420;-67
2022/08/16 04:42:39;;;;;;;24.48;3.67;;;36.20;56.50;;;;;;5068846;28;20101;-66
2022/08/16 04:45:12;;;;;;;23.35;3.25;;;36.20;56.60;;;;;;5067570;28;20066;-68
2022/08/16 04:47:41;;;;;;;33.22;3.50;;;36.10;56.80;;;;;;5073117;28;20116;-67
2022/08/16 04:50:10;;;;;;;44.08;4.18;;;36.10;57.00;;;;;;5068331;28;20067;-66
2022/08/16 04:52:37;;;;;;;41.20;4.93;;;36.10;57.40;;;;;;5086101;28;20145;-67
2022/08/16 04:55:07;;;;;;;27.67;3.25;;;36.00;57.60;;;;;;5068554;28;20229;-70
2022/08/16 04:57:34;;;;;;;45.50;5.00;;;36.00;57.90;;;;;;5067896;28;20074;-67
2022/08/16 05:00:01;;;;;;;32.30;3.50;;;35.90;58.20;;;;;;5070018;28;20102;-66
2022/08/16 05:02:28;;;;;;;19.48;3.05;;;35.80;58.20;;;;;;5068907;28;20072;-70
2022/08/16 05:04:54;;;;;;;23.35;3.08;;;35.80;58.50;;;;;;5068493;28;20078;-68
2022/08/16 05:07:21;;;;;;;17.02;2.97;;;35.80;58.80;;;;;;5069805;28;20060;-68
2022/08/16 05:09:47;;;;;;;16.45;2.92;;;35.70;58.80;;;;;;5068798;28;20060;-69
2022/08/16 05:12:13;;;;;;;25.70;3.30;;;35.70;59.20;;;;;;5069075;28;20067;-69
2022/08/16 05:14:40;;;;;;;23.00;3.78;;;35.60;59.50;;;;;;5067928;28;20069;-68
2022/08/16 05:17:06;;;;;;;22.00;2.88;;;35.60;59.70;;;;;;5067753;28;20094;-69
2022/08/16 05:19:33;;;;;;;18.60;3.15;;;35.60;59.80;;;;;;5085103;28;20063;-69
2022/08/16 05:21:59;;;;;;;21.77;2.72;;;35.60;60.10;;;;;;5068602;28;20083;-68
2022/08/16 05:24:26;;;;;;;14.93;2.78;;;35.50;60.30;;;;;;5069031;28;20126;-69
2022/08/16 05:26:52;;;;;;;11.05;2.30;;;35.50;60.70;;;;;;5067645;28;20063;-70
2022/08/16 05:29:19;;;;;;;12.85;2.33;;;35.50;60.90;;;;;;5068656;28;20069;-68
2022/08/16 05:31:45;;;;;;;12.50;2.88;;;35.50;61.00;;;;;;5067929;28;20149;-68
2022/08/16 05:34:12;;;;;;;13.88;2.67;;;35.50;61.10;;;;;;5068006;28;20064;-69
2022/08/16 05:36:38;;;;;;;22.40;2.63;;;35.40;61.30;;;;;;5066944;28;20069;-68
2022/08/16 05:39:07;;;;;;;12.30;2.47;;;35.40;61.50;;;;;;5068711;28;20068;-69
2022/08/16 05:41:34;;;;;;;9.07;2.17;;;35.30;61.70;;;;;;5067688;28;20106;-69
2022/08/16 05:44:00;;;;;;;15.68;1.98;;;35.30;61.80;;;;;;5067470;28;20614;-68
2022/08/16 05:46:27;;;;;;;14.32;2.65;;;35.30;61.90;;;;;;5084119;28;20069;-68
2022/08/16 05:48:53;;;;;;;12.23;2.55;;;35.20;61.50;;;;;;5067538;28;20100;-68
2022/08/16 05:51:19;;;;;;;20.88;2.55;;;35.20;61.40;;;;;;5067667;28;20080;-71
2022/08/16 05:53:46;;;;;;;8.68;2.10;;;35.20;61.10;;;;;;5067714;28;20162;-71
2022/08/16 05:56:12;;;;;;;9.82;2.00;;;35.20;61.00;;;;;;5067578;28;20111;-68
2022/08/16 05:58:38;;;;;;;12.23;2.28;;;35.20;60.50;;;;;;5070057;28;20092;-70
2022/08/16 06:01:05;;;;;;;13.57;2.22;;;35.20;60.50;;;;;;5069005;28;20529;-70
2022/08/16 06:03:31;;;;;;;7.80;2.17;;;35.20;60.20;;;;;;5068079;28;20074;-67
2022/08/16 06:05:58;;;;;;;11.98;2.15;;;35.20;60.00;;;;;;5067866;28;20067;-68
2022/08/16 06:08:24;;;;;;;13.98;2.63;;;35.10;59.90;;;;;;5067650;28;20455;-71
2022/08/16 06:10:51;;;;;;;8.60;2.08;;;35.10;59.80;;;;;;5067253;28;20084;-71
2022/08/16 06:13:17;;;;;;;12.93;2.30;;;35.10;59.70;;;;;;5053512;28;20091;-70
2022/08/16 06:15:44;;;;;;;11.68;2.40;;;35.10;59.50;;;;;;5066941;28;20120;-69
2022/08/16 06:18:10;;;;;;;15.60;2.75;;;35.10;60.00;;;;;;5072245;28;20092;-69
2022/08/16 06:20:37;;;;;;;7.82;2.40;;;35.10;59.20;;;;;;5078200;28;20111;-69
2022/08/16 06:23:04;;;;;;;14.93;2.92;;;35.10;59.20;;;;;;5051340;28;20542;-68
2022/08/16 06:25:32;;;;;;;14.25;2.55;;;35.10;59.10;;;;;;5066777;28;20070;-69
2022/08/16 06:27:58;;;;;;;8.93;2.40;;;35.10;59.00;;;;;;5066822;28;20100;-69
2022/08/16 06:30:25;;;;;;;21.38;2.33;;;35.10;58.70;;;;;;5067054;28;20075;-69
2022/08/16 06:32:51;;;;;;;16.20;3.13;;;35.10;58.70;;;;;;5067381;28;20061;-69
2022/08/16 06:35:17;;;;;;;16.30;2.85;;;35.10;58.70;;;;;;5066304;28;20075;-69
2022/08/16 06:37:44;;;;;;;12.88;2.60;;;35.00;58.40;;;;;;5069436;28;20076;-66
2022/08/16 06:40:11;;;;;;;16.48;2.67;;;35.00;58.10;;;;;;5066776;28;20429;-69
2022/08/16 06:42:38;;;;;;;24.85;2.53;;;35.00;58.30;;;;;;5065504;28;20131;-69
2022/08/16 06:45:06;;;;;;;13.55;2.40;;;35.00;58.20;;;;;;5073666;28;20062;-67
2022/08/16 06:47:32;;;;;;;16.77;2.35;;;35.00;58.40;;;;;;5071076;28;20511;-68
2022/08/16 06:49:59;;;;;;;10.00;2.05;;;35.00;58.60;;;;;;5070381;28;20075;-66
2022/08/16 06:52:25;;;;;;;15.52;2.33;;;35.00;58.40;;;;;;5071147;28;20091;-67
2022/08/16 06:54:51;;;;;;;12.45;2.40;;;35.00;58.70;;;;;;5068992;28;20113;-67
2022/08/16 06:57:18;;;;;;;19.13;2.55;;;34.90;58.60;;;;;;5070400;28;20530;-67
2022/08/16 06:59:45;;;;;;;17.13;2.50;;;34.90;58.80;;;;;;5070686;28;20065;-68
2022/08/16 07:02:12;;;;;;;15.32;2.50;;;34.90;58.60;;;;;;5072270;28;20553;-68
2022/08/16 07:04:41;;;;;;;18.77;2.40;;;34.90;58.70;;;;;;5070492;28;20073;-68
2022/08/16 07:07:07;;;;;;;17.42;2.40;;;34.90;58.70;;;;;;5071623;28;20059;-68
2022/08/16 07:09:34;;;;;;;17.25;2.50;;;34.80;58.80;;;;;;5070078;28;20067;-68
2022/08/16 07:12:00;;;;;;;15.85;2.78;;;34.80;58.90;;;;;;5073148;28;20062;-68
2022/08/16 07:14:26;;;;;;;17.60;2.35;;;34.80;59.10;;;;;;5072564;28;20464;-68
2022/08/16 07:16:56;;;;;;;12.95;2.38;;;34.70;59.00;;;;;;5070319;28;20117;-70
2022/08/16 07:19:22;;;;;;;13.60;2.47;;;34.70;59.00;;;;;;5070795;28;20118;-70
2022/08/16 07:21:49;;;;;;;15.35;2.25;;;34.60;59.10;;;;;;5070720;28;20078;-68
2022/08/16 07:24:16;;;;;;;12.95;2.05;;;34.60;59.30;;;;;;5067997;28;20067;-68
2022/08/16 07:26:43;;;;;;;15.30;2.38;;;34.60;59.20;;;;;;5086632;28;20073;-70
2022/08/16 07:29:10;;;;;;;16.85;2.42;;;34.60;59.10;;;;;;5070363;28;20197;-67
2022/08/16 07:31:36;;;;;;;11.75;2.60;;;34.60;59.30;;;;;;5069739;28;20113;-69
2022/08/16 07:34:02;;;;;;;12.95;2.55;;;34.60;59.50;;;;;;5069991;28;20067;-68
2022/08/16 07:36:29;;;;;;;17.90;2.78;;;34.60;59.60;;;;;;5052367;28;20484;-68
2022/08/16 07:38:56;;;;;;;12.10;2.75;;;34.50;59.80;;;;;;5052708;28;20072;-68
2022/08/16 07:41:22;;;;;;;19.13;2.63;;;34.50;59.80;;;;;;5070285;28;20150;-68
2022/08/16 07:43:49;;;;;;;23.70;3.17;;;34.50;59.90;;;;;;5069548;28;20083;-68
2022/08/16 07:46:15;;;;;;;15.95;2.83;;;34.50;59.80;;;;;;5070093;28;20067;-68
2022/08/16 07:48:41;;;;;;;9.60;2.42;;;34.40;59.90;;;;;;5069751;28;20186;-67
2022/08/16 07:51:08;;;;;;;19.77;3.30;;;34.40;60.30;;;;;;5070147;28;20065;-68
2022/08/16 07:53:34;;;;;;;15.30;2.53;;;34.40;60.30;;;;;;5070332;28;20515;-68
2022/08/16 07:56:01;;;;;;;17.05;2.70;;;34.30;60.30;;;;;;5069475;28;20110;-68
2022/08/16 07:58:28;;;;;;;14.43;2.40;;;34.30;60.50;;;;;;5086694;28;20091;-68
2022/08/16 08:00:55;;;;;;;14.10;2.55;;;34.30;60.70;;;;;;5069423;28;20072;-68
2022/08/16 08:03:21;;;;;;;15.35;2.63;;;34.30;60.80;;;;;;5069224;28;20497;-68
2022/08/16 08:05:48;;;;;;;16.30;2.92;;;34.30;61.00;;;;;;5070769;28;20108;-68
2022/08/16 08:08:14;;;;;;;15.50;2.50;;;34.30;61.10;;;;;;5069658;28;20089;-69
2022/08/16 08:10:41;;;;;;;15.60;2.58;;;34.30;62.00;;;;;;5069309;28;20518;-69
2022/08/16 08:13:07;;;;;;;10.50;2.40;;;34.30;61.20;;;;;;5069191;28;20077;-68
2022/08/16 08:15:34;;;;;;;7.13;2.30;;;34.20;61.80;;;;;;5069594;28;20061;-67
2022/08/16 08:18:01;;;;;;;11.60;2.17;;;34.20;62.10;;;;;;5068606;28;20088;-70
2022/08/16 08:20:28;;;;;;;22.15;3.10;;;34.10;62.50;;;;;;5068183;28;20540;-69
2022/08/16 08:22:57;;;;;;;10.98;2.25;;;34.10;63.00;;;;;;5085344;28;20084;-68
2022/08/16 08:25:24;;;;;;;12.80;2.50;;;34.10;62.80;;;;;;5069602;28;20431;-69
2022/08/16 08:27:50;;;;;;;13.50;2.75;;;34.00;62.50;;;;;;5069046;28;20091;-68
2022/08/16 08:30:17;;;;;;;21.15;2.85;;;34.00;63.10;;;;;;5069438;28;20144;-70
2022/08/16 08:32:43;;;;;;;16.75;2.80;;;34.00;62.80;;;;;;5070854;28;20085;-68
2022/08/16 08:35:10;;;;;;;17.60;2.83;;;34.00;62.80;;;;;;5067979;28;20412;-69
2022/08/16 08:37:37;;;;;;;13.48;2.92;;;34.00;62.70;;;;;;5070006;28;20087;-68
2022/08/16 08:40:07;;;;;;;21.98;2.75;;;33.90;63.00;;;;;;5067768;28;20516;-68
2022/08/16 08:42:33;;;;;;;16.30;2.67;;;33.90;63.10;;;;;;5068299;28;20085;-68
2022/08/16 08:45:02;;;;;;;32.33;3.95;;;33.90;63.40;;;;;;5067371;28;20093;-68
2022/08/16 08:47:28;;;;;;;19.42;3.22;;;33.90;63.30;;;;;;5067124;28;20072;-69
2022/08/16 08:49:55;;;;;;;36.95;3.90;;;33.90;63.40;;;;;;5069802;28;20066;-68
2022/08/16 08:52:22;;;;;;;36.83;4.95;;;33.90;63.40;;;;;;5068953;28;20100;-68
2022/08/16 08:54:48;;;;;;;31.67;4.40;;;33.90;64.00;;;;;;5068440;28;20462;-68
2022/08/16 08:57:17;;;;;;;23.63;3.78;;;33.90;63.90;;;;;;5068324;28;20073;-68
2022/08/16 08:59:44;;;;;;;31.33;3.92;;;33.90;64.10;;;;;;5068407;28;20071;-68
2022/08/16 09:02:15;;;;;;;38.53;4.57;;;33.90;63.90;;;;;;5068047;28;20181;-68
2022/08/16 09:04:44;;;;;;;31.38;4.82;;;33.90;64.00;;;;;;5068069;28;20429;-68
2022/08/16 09:07:11;;;;;;;20.60;3.53;;;33.80;63.90;;;;;;5068019;28;20065;-68
2022/08/16 09:09:38;;;;;;;13.88;3.10;;;33.80;65.50;;;;;;5068680;28;20451;-68
2022/08/16 09:12:07;;;;;;;14.48;3.38;;;33.60;67.00;;;;;;5068198;28;20100;-68
2022/08/16 09:14:37;;;;;;;13.40;2.88;;;33.70;67.60;;;;;;5068227;28;20074;-68
2022/08/16 09:17:05;;;;;;;17.63;3.25;;;33.70;67.30;;;;;;5067909;28;20547;-68
2022/08/16 09:19:33;;;;;;;12.52;3.20;;;33.60;67.50;;;;;;5067952;28;20067;-68
2022/08/16 09:21:59;;;;;;;10.02;2.65;;;33.60;67.90;;;;;;5068317;28;20104;-68
2022/08/16 09:24:26;;;;;;;13.10;2.67;;;33.50;69.20;;;;;;5067801;28;20078;-68
2022/08/16 09:26:52;;;;;;;15.35;3.20;;;33.50;69.60;;;;;;5067542;28;20067;-68
2022/08/16 09:29:19;;;;;;;12.30;3.20;;;33.50;69.70;;;;;;5069318;28;20151;-68
2022/08/16 09:31:46;;;;;;;10.75;3.03;;;33.40;69.70;;;;;;5067503;28;20337;-68
2022/08/16 09:34:12;;;;;;;14.32;3.13;;;33.40;70.30;;;;;;5067466;28;20074;-68
2022/08/16 09:36:39;;;;;;;9.18;2.85;;;33.40;70.10;;;;;;5068253;28;20074;-68
2022/08/16 09:39:05;;;;;;;13.10;3.22;;;33.40;70.40;;;;;;5067707;28;20415;-68
2022/08/16 09:41:32;;;;;;;13.02;3.00;;;33.40;70.50;;;;;;5070078;28;20072;-69
2022/08/16 09:43:59;;;;;;;11.30;3.33;;;33.30;71.00;;;;;;5067065;28;20122;-68
2022/08/16 09:46:26;;;;;;;13.18;3.45;;;33.20;71.40;;;;;;5069466;28;20078;-69
2022/08/16 09:48:53;;;;;;;14.55;3.60;;;33.20;71.50;;;;;;5067491;28;20074;-68
2022/08/16 09:51:22;;;;;;;15.85;4.15;;;33.20;71.70;;;;;;5084097;28;20071;-71
2022/08/16 09:53:49;;;;;;;11.90;4.15;;;33.10;72.10;;;;;;5068319;28;20263;-70
2022/08/16 09:56:27;;;;;;;21.63;4.88;;;33.00;72.40;;;;;;5067479;28;20108;-68
2022/08/16 09:58:54;;;;;;;11.02;3.47;;;33.00;72.70;;;;;;5067483;28;20544;-68
2022/08/16 10:01:21;;;;;;;17.38;4.82;;;33.00;72.70;;;;;;5070641;28;20121;-68
2022/08/16 10:03:48;;;;;;;15.38;3.83;;;33.00;73.10;;;;;;5067316;28;20453;-68
2022/08/16 10:06:14;;;;;;;17.38;4.05;;;33.00;73.60;;;;;;5067729;28;20082;-68
2022/08/16 10:08:41;;;;;;;22.45;4.30;;;33.00;73.40;;;;;;5067290;28;20126;-68
2022/08/16 10:13:51;;;;;;;19.98;3.60;;;33.00;74.00;;;;;;5068267;28;20169;-68
2022/08/16 10:16:18;;;;;;;20.63;3.65;;;32.90;74.50;;;;;;5067415;28;20128;-68
2022/08/16 10:18:44;;;;;;;14.50;4.15;;;32.70;75.00;;;;;;5069212;28;20466;-68
2022/08/16 10:21:12;;;;;;;17.27;3.90;;;32.70;75.20;;;;;;5087664;28;20082;-69
2022/08/16 10:23:39;;;;;;;13.57;3.20;;;32.70;75.30;;;;;;5072039;28;20144;-71
2022/08/16 10:26:06;;;;;;;14.20;3.22;;;32.80;75.50;;;;;;5071336;28;20090;-68
2022/08/16 10:28:33;;;;;;;14.57;2.97;;;32.70;76.40;;;;;;5070898;28;20062;-68
2022/08/16 10:31:00;;;;;;;11.40;3.00;;;32.70;76.80;;;;;;5070715;28;20208;-69
2022/08/16 10:33:27;;;;;;;16.20;3.40;;;32.60;76.70;;;;;;5071319;28;20104;-68
2022/08/16 10:35:54;;;;;;;16.75;3.50;;;32.60;76.50;;;;;;5070816;28;20087;-68
2022/08/16 10:38:21;;;;;;;11.48;2.70;;;32.70;76.50;;;;;;5071989;28;20474;-71
2022/08/16 10:40:47;;;;;;;9.85;2.85;;;32.60;76.80;;;;;;5070893;28;20095;-69
2022/08/16 10:43:14;;;;;;;7.97;2.60;;;32.70;76.90;;;;;;5071684;28;20621;-69
2022/08/16 10:45:41;;;;;;;15.60;3.17;;;32.60;76.70;;;;;;5087407;28;20074;-69
2022/08/16 10:48:09;;;;;;;11.82;2.90;;;32.60;77.00;;;;;;5071922;28;20075;-68
2022/08/16 10:50:37;;;;;;;11.25;2.75;;;32.60;77.00;;;;;;5071276;28;20069;-69
2022/08/16 10:53:05;;;;;;;15.02;3.45;;;32.60;77.30;;;;;;5071514;28;20094;-69
2022/08/16 10:55:37;;;;;;;16.75;3.97;;;32.60;77.50;;;;;;5071263;28;20537;-69
2022/08/16 10:58:06;;;;;;;17.00;3.53;;;32.60;77.80;;;;;;5070787;28;20069;-69
2022/08/16 11:00:34;;;;;;;11.20;3.08;;;32.60;77.90;;;;;;5070168;28;20068;-69
2022/08/16 11:03:02;;;;;;;14.65;3.25;;;32.50;78.70;;;;;;5070934;28;20204;-68
2022/08/16 11:05:32;;;;;;;17.40;3.40;;;32.50;78.30;;;;;;5070691;28;20082;-70
2022/08/16 11:08:00;;;;;;;15.95;3.50;;;32.50;79.10;;;;;;5070589;28;20075;-69
2022/08/16 11:10:33;;;;;;;10.93;3.38;;;32.50;79.60;;;;;;5071116;28;20153;-69
2022/08/16 11:12:59;;;;;;;13.10;3.17;;;32.50;80.10;;;;;;5071576;28;20169;-69
2022/08/16 11:15:26;;;;;;;14.88;3.63;;;32.50;80.40;;;;;;5074670;28;20085;-69
2022/08/16 11:17:54;;;;;;;12.25;2.92;;;32.50;81.20;;;;;;5071840;28;20092;-69
2022/08/16 11:20:21;;;;;;;16.02;3.17;;;32.40;81.80;;;;;;5071213;28;20234;-69
2022/08/16 11:22:49;;;;;;;9.80;2.65;;;32.30;82.80;;;;;;5071147;28;20184;-69
2022/08/16 11:25:19;;;;;;;12.43;2.88;;;32.30;83.40;;;;;;5071949;28;20074;-69
2022/08/16 11:27:46;;;;;;;7.68;3.08;;;32.30;84.00;;;;;;5070085;28;20161;-71
2022/08/16 11:30:14;;;;;;;10.02;2.85;;;32.30;84.60;;;;;;5069753;28;20138;-69
2022/08/16 11:32:43;;;;;;;8.32;2.95;;;32.20;84.90;;;;;;5069473;28;20079;-69
2022/08/16 11:35:15;;;;;;;12.88;2.88;;;32.20;85.40;;;;;;5069800;28;20100;-69
2022/08/16 11:37:47;;;;;;;14.80;2.90;;;32.20;86.00;;;;;;5069657;28;20072;-68
2022/08/16 11:40:15;;;;;;;11.70;3.22;;;32.20;86.60;;;;;;5068705;28;20072;-69
2022/08/16 11:42:42;;;;;;;8.60;2.72;;;32.20;87.40;;;;;;5069600;28;20084;-69
2022/08/16 11:45:09;;;;;;;11.57;3.03;;;32.20;88.60;;;;;;5069187;28;20436;-71
2022/08/16 11:47:36;;;;;;;15.63;3.00;;;32.10;89.50;;;;;;5070520;28;20068;-69
2022/08/16 11:50:08;;;;;;;10.05;3.03;;;32.00;90.10;;;;;;5070689;28;20134;-71
2022/08/16 11:52:38;;;;;;;15.77;2.78;;;32.00;90.50;;;;;;5070115;28;20075;-70
2022/08/16 11:55:07;;;;;;;10.38;2.22;;;32.00;90.90;;;;;;5070146;28;20527;-69
2022/08/16 11:57:34;;;;;;;14.27;2.92;;;32.00;91.10;;;;;;5069560;28;20163;-70
2022/08/16 12:00:01;;;;;;;15.18;3.20;;;31.90;91.50;;;;;;5069282;28;20076;-69
2022/08/16 12:02:28;;;;;;;14.65;4.05;;;31.90;91.90;;;;;;5069996;28;20088;-70
2022/08/16 12:04:54;;;;;;;15.68;3.25;;;31.90;92.50;;;;;;5069375;28;20121;-69
2022/08/16 12:07:21;;;;;;;11.73;3.00;;;31.90;92.90;;;;;;5068642;28;20104;-69
2022/08/16 12:09:47;;;;;;;8.80;2.90;;;31.90;93.70;;;;;;5070198;28;20080;-69
2022/08/16 12:12:14;;;;;;;12.65;2.95;;;31.90;94.60;;;;;;5070008;28;20122;-69
2022/08/16 12:14:40;;;;;;;12.50;3.30;;;31.80;95.40;;;;;;5071336;28;20068;-68
2022/08/16 12:17:07;;;;;;;7.63;2.92;;;31.80;96.20;;;;;;5073012;28;20091;-70
2022/08/16 12:19:34;;;;;;;14.70;3.10;;;31.70;96.90;;;;;;5072680;28;20104;-67
2022/08/16 12:22:01;;;;;;;21.23;3.67;;;31.70;97.50;;;;;;5072699;28;20103;-69
2022/08/16 12:24:28;;;;;;;12.13;3.75;;;31.70;98.20;;;;;;5071564;28;20970;-68
2022/08/16 12:26:55;;;;;;;11.90;3.72;;;31.70;99.00;;;;;;5070450;28;20095;-69
2022/08/16 12:29:22;;;;;;;10.18;3.47;;;31.70;99.90;;;;;;5074116;28;20064;-68
2022/08/16 12:31:50;;;;;;;10.43;3.60;;;31.60;99.90;;;;;;5069978;28;20084;-70
2022/08/16 12:34:18;;;;;;;11.95;3.90;;;31.50;99.90;;;;;;5068988;28;20540;-69
2022/08/16 12:36:45;;;;;;;13.43;3.45;;;31.60;99.90;;;;;;5068856;28;20111;-69
2022/08/16 12:39:12;;;;;;;10.88;2.83;;;31.60;99.90;;;;;;5069485;28;20125;-69
2022/08/16 12:41:39;;;;;;;14.82;3.67;;;31.50;99.90;;;;;;5068035;28;20075;-69